Time;durP1;ratioP1;P1;durP2;ratioP2;P2;SDS_P1;SDS_P2;PMS_P1;PMS_P2;Temp;Humidity;BMP_temperature;BMP_pressure;BME280_temperature;BME280_humidity;BME280_pressure;Samples;Min_cycle;Max_cycle;Signal;HPM_P1;HPM_P2
2021/12/14 00:01:53;;;;;;;8.82;5.63;;;7.50;93.90;;;;;;5035645;28;20522;-81
2021/12/14 00:04:29;;;;;;;13.75;6.43;;;7.50;93.90;;;;;;5008478;28;20041;-80
2021/12/14 00:06:55;;;;;;;11.48;6.75;;;7.50;93.90;;;;;;5046507;28;20086;-80
2021/12/14 00:09:28;;;;;;;13.55;7.95;;;7.50;93.90;;;;;;5019336;28;20029;-81
2021/12/14 00:17:30;;;;;;;11.40;6.53;;;7.50;93.90;;;;;;5016972;28;20072;-81
2021/12/14 00:19:58;;;;;;;8.13;5.50;;;7.50;93.90;;;;;;5017663;28;20030;-81
2021/12/14 00:24:06;;;;;;;11.80;6.57;;;7.50;93.90;;;;;;5052189;28;20033;-81
2021/12/14 00:25:24;;;;;;;7.85;4.90;;;7.50;93.90;;;;;;5035633;28;20039;-81
2021/12/14 00:27:50;;;;;;;9.25;5.78;;;7.50;93.90;;;;;;5032552;28;20025;-81
2021/12/14 00:30:16;;;;;;;11.75;7.15;;;7.50;93.90;;;;;;5038443;28;20033;-81
2021/12/14 00:32:41;;;;;;;12.02;7.28;;;7.50;93.90;;;;;;5044584;28;20661;-81
2021/12/14 00:35:12;;;;;;;12.93;8.15;;;7.50;93.90;;;;;;5051157;28;20041;-81
2021/12/14 00:37:40;;;;;;;14.32;7.82;;;7.50;93.90;;;;;;5051440;28;20048;-81
2021/12/14 00:40:24;;;;;;;13.35;8.13;;;7.50;94.00;;;;;;5034016;28;20037;-81
2021/12/14 00:42:50;;;;;;;11.43;7.05;;;7.50;94.00;;;;;;5047348;28;20147;-81
2021/12/14 00:45:15;;;;;;;11.63;6.95;;;7.40;93.90;;;;;;5035807;28;20454;-80
2021/12/14 00:47:41;;;;;;;12.32;8.07;;;7.50;94.00;;;;;;5034689;28;20043;-80
2021/12/14 00:50:07;;;;;;;12.20;7.13;;;7.50;94.00;;;;;;5058703;28;20097;-80
2021/12/14 00:52:33;;;;;;;10.60;6.10;;;7.40;94.00;;;;;;5045510;28;20119;-80
2021/12/14 00:54:59;;;;;;;12.63;7.13;;;7.50;94.00;;;;;;5049098;28;20447;-80
2021/12/14 00:57:24;;;;;;;11.23;6.53;;;7.50;94.00;;;;;;5050499;28;20043;-80
2021/12/14 00:59:50;;;;;;;9.65;5.80;;;7.40;94.00;;;;;;5064897;28;20485;-80
2021/12/14 01:02:21;;;;;;;8.98;5.60;;;7.40;94.00;;;;;;5038704;28;20116;-80
2021/12/14 01:04:56;;;;;;;10.25;5.95;;;7.50;94.00;;;;;;5062588;28;20053;-80
2021/12/14 01:07:24;;;;;;;7.97;5.60;;;7.40;94.00;;;;;;5042908;28;20572;-80
2021/12/14 01:09:50;;;;;;;11.15;6.30;;;7.40;93.90;;;;;;5051827;28;20028;-80
2021/12/14 01:12:26;;;;;;;9.80;5.43;;;7.50;94.00;;;;;;5055176;28;20033;-80
2021/12/14 01:15:22;;;;;;;8.82;5.63;;;7.50;94.00;;;;;;5075741;28;20054;-80
2021/12/14 01:20:46;;;;;;;10.20;5.72;;;7.40;93.90;;;;;;5030620;28;20293;-80
2021/12/14 01:23:19;;;;;;;11.23;6.57;;;7.40;93.80;;;;;;5046779;28;20029;-80
2021/12/14 01:25:48;;;;;;;10.13;5.80;;;7.40;93.90;;;;;;5044606;28;20123;-80
2021/12/14 01:28:20;;;;;;;9.15;5.28;;;7.40;93.90;;;;;;5043644;28;20518;-80
2021/12/14 01:31:03;;;;;;;8.63;5.95;;;7.40;93.90;;;;;;5049678;28;20594;-80
2021/12/14 01:33:29;;;;;;;8.30;5.28;;;7.40;93.90;;;;;;5038851;28;20113;-80
2021/12/14 01:35:55;;;;;;;8.05;5.10;;;7.40;93.90;;;;;;5041997;28;20032;-80
2021/12/14 01:38:33;;;;;;;9.55;5.95;;;7.40;93.90;;;;;;5050203;28;20025;-80
2021/12/14 01:41:03;;;;;;;10.88;6.53;;;7.40;93.90;;;;;;5039703;28;20029;-80
2021/12/14 01:43:31;;;;;;;6.57;4.35;;;7.40;93.90;;;;;;5074621;28;20555;-80
2021/12/14 01:45:59;;;;;;;7.38;4.35;;;7.40;93.90;;;;;;5017143;28;20561;-80
2021/12/14 01:48:25;;;;;;;6.90;4.43;;;7.40;93.90;;;;;;5015232;28;20667;-80
2021/12/14 01:50:54;;;;;;;8.52;4.78;;;7.30;93.90;;;;;;5085478;28;20029;-80
2021/12/14 01:53:20;;;;;;;6.03;3.88;;;7.40;93.90;;;;;;5055043;28;20028;-80
2021/12/14 01:55:51;;;;;;;6.72;4.15;;;7.30;93.90;;;;;;5073702;28;20040;-81
2021/12/14 01:58:17;;;;;;;8.33;4.33;;;7.40;94.00;;;;;;5044228;28;20024;-80
2021/12/14 02:00:46;;;;;;;6.03;4.38;;;7.40;94.00;;;;;;5037815;28;20282;-80
2021/12/14 02:03:13;;;;;;;5.97;3.95;;;7.30;93.90;;;;;;5040447;28;20020;-81
2021/12/14 02:05:41;;;;;;;5.38;3.50;;;7.40;94.00;;;;;;5065129;28;20461;-80
2021/12/14 02:08:19;;;;;;;5.63;3.33;;;7.40;93.90;;;;;;5030515;28;20071;-81
2021/12/14 02:10:44;;;;;;;9.85;4.05;;;7.30;93.90;;;;;;5040696;28;20025;-80
2021/12/14 02:13:10;;;;;;;6.15;4.00;;;7.30;93.90;;;;;;5043393;28;20032;-80
2021/12/14 02:15:45;;;;;;;8.70;4.93;;;7.30;93.80;;;;;;5050277;28;20123;-80
2021/12/14 02:18:15;;;;;;;7.63;4.82;;;7.30;93.80;;;;;;5035369;28;20090;-80
2021/12/14 02:20:48;;;;;;;8.18;4.82;;;7.30;93.80;;;;;;5038787;28;20040;-80
2021/12/14 02:23:13;;;;;;;7.75;5.00;;;7.30;93.90;;;;;;5051349;28;20074;-80
2021/12/14 02:25:39;;;;;;;8.02;4.65;;;7.30;93.90;;;;;;5048047;28;20529;-80
2021/12/14 02:28:07;;;;;;;8.30;5.00;;;7.30;93.90;;;;;;5046082;28;20040;-81
2021/12/14 02:30:33;;;;;;;7.90;4.65;;;7.30;94.00;;;;;;5045925;28;20028;-81
2021/12/14 02:32:59;;;;;;;6.55;3.95;;;7.30;93.90;;;;;;4989924;28;20119;-80
2021/12/14 02:35:26;;;;;;;5.75;3.45;;;7.30;93.90;;;;;;5007264;28;20041;-80
2021/12/14 02:37:58;;;;;;;4.85;3.17;;;7.30;93.90;;;;;;5023939;28;20116;-80
2021/12/14 02:40:57;;;;;;;3.85;2.38;;;7.30;93.90;;;;;;5044627;28;20510;-81
2021/12/14 02:43:27;;;;;;;4.18;2.50;;;7.30;94.00;;;;;;5022681;28;20455;-81
2021/12/14 02:45:54;;;;;;;3.47;2.50;;;7.30;93.90;;;;;;5024101;28;20032;-80
2021/12/14 02:48:20;;;;;;;3.40;2.60;;;7.30;93.90;;;;;;5030737;28;20028;-81
2021/12/14 02:50:45;;;;;;;3.40;2.30;;;7.30;93.90;;;;;;5046464;28;20466;-81
2021/12/14 02:53:12;;;;;;;7.28;2.85;;;7.30;93.90;;;;;;5054746;28;20051;-80
2021/12/14 02:55:37;;;;;;;5.28;3.13;;;7.30;93.90;;;;;;5007749;28;20025;-80
2021/12/14 02:58:05;;;;;;;4.35;2.78;;;7.20;93.90;;;;;;5049076;28;20035;-80
2021/12/14 03:00:43;;;;;;;3.88;2.83;;;7.20;93.90;;;;;;5025859;28;20103;-80
2021/12/14 03:03:09;;;;;;;5.03;3.00;;;7.20;93.90;;;;;;5039196;28;20024;-80
2021/12/14 03:05:36;;;;;;;4.97;2.30;;;7.20;93.90;;;;;;5046660;28;20107;-80
2021/12/14 03:08:14;;;;;;;3.95;2.80;;;7.20;93.90;;;;;;5026733;28;20086;-80
2021/12/14 03:10:56;;;;;;;4.05;3.10;;;7.20;93.90;;;;;;5059900;28;20094;-80
2021/12/14 03:13:23;;;;;;;3.92;2.40;;;7.20;93.90;;;;;;5052877;28;20501;-80
2021/12/14 03:15:53;;;;;;;4.53;2.80;;;7.20;93.90;;;;;;5034690;28;20033;-80
2021/12/14 03:18:22;;;;;;;4.72;3.17;;;7.20;93.90;;;;;;5046580;28;20028;-80
2021/12/14 03:20:54;;;;;;;4.85;3.10;;;7.20;93.90;;;;;;5029202;28;20055;-80
2021/12/14 03:23:35;;;;;;;7.80;4.50;;;7.20;93.90;;;;;;5053794;28;20044;-80
2021/12/14 03:26:03;;;;;;;4.20;2.72;;;7.20;93.90;;;;;;5043597;28;20548;-80
2021/12/14 03:28:29;;;;;;;4.07;2.72;;;7.20;93.90;;;;;;5044182;28;20645;-80
2021/12/14 03:31:07;;;;;;;5.72;3.50;;;7.20;93.90;;;;;;5030940;28;20103;-80
2021/12/14 03:33:35;;;;;;;6.55;4.30;;;7.20;93.80;;;;;;5062683;28;20055;-80
2021/12/14 03:36:09;;;;;;;10.25;5.30;;;7.20;93.80;;;;;;5076981;28;20590;-80
2021/12/14 03:38:43;;;;;;;10.77;5.03;;;7.10;93.80;;;;;;5039124;28;20517;-80
2021/12/14 03:41:17;;;;;;;14.85;7.93;;;7.10;93.80;;;;;;5068022;28;20058;-80
2021/12/14 03:43:49;;;;;;;15.50;9.48;;;7.10;93.80;;;;;;5036977;28;20028;-79
2021/12/14 03:46:15;;;;;;;12.18;7.40;;;7.10;93.80;;;;;;5059687;28;20036;-80
2021/12/14 03:48:41;;;;;;;8.55;5.72;;;7.10;93.80;;;;;;5051405;28;20562;-80
2021/12/14 03:51:06;;;;;;;7.22;4.70;;;7.10;93.80;;;;;;5037474;28;20048;-80
2021/12/14 03:53:32;;;;;;;6.53;4.82;;;7.10;93.80;;;;;;5057264;28;20036;-80
2021/12/14 03:56:00;;;;;;;9.07;4.97;;;7.10;93.80;;;;;;5064611;28;20025;-80
2021/12/14 03:58:30;;;;;;;6.57;4.03;;;7.10;93.80;;;;;;5049857;28;20071;-80
2021/12/14 04:01:12;;;;;;;7.10;4.57;;;7.10;93.90;;;;;;5066343;28;20031;-80
2021/12/14 04:03:37;;;;;;;8.35;4.22;;;7.10;93.80;;;;;;5049948;28;20100;-81
2021/12/14 04:06:04;;;;;;;6.38;4.15;;;7.10;94.20;;;;;;5068747;28;20119;-80
2021/12/14 04:08:30;;;;;;;6.93;4.35;;;7.10;93.80;;;;;;5043201;28;20040;-80
2021/12/14 04:10:57;;;;;;;7.32;4.43;;;7.10;93.80;;;;;;5059210;28;20071;-80
2021/12/14 04:13:30;;;;;;;6.53;4.20;;;7.10;93.80;;;;;;5057955;28;20835;-80
2021/12/14 04:15:56;;;;;;;59.83;23.35;;;7.00;93.70;;;;;;5051275;28;20048;-80
2021/12/14 04:18:21;;;;;;;16.77;8.45;;;7.10;93.80;;;;;;5054454;28;20047;-80
2021/12/14 04:20:48;;;;;;;14.65;7.00;;;7.00;93.80;;;;;;5084506;28;20032;-80
2021/12/14 04:23:16;;;;;;;9.90;5.68;;;7.00;93.80;;;;;;5055222;28;20036;-81
2021/12/14 04:25:42;;;;;;;8.30;5.15;;;7.00;93.80;;;;;;5043957;28;20460;-81
2021/12/14 04:28:10;;;;;;;10.18;5.60;;;7.00;93.80;;;;;;5057034;28;20036;-80
2021/12/14 04:30:36;;;;;;;9.13;5.40;;;7.00;93.80;;;;;;5040219;28;20432;-80
2021/12/14 04:33:03;;;;;;;10.82;5.45;;;7.00;93.80;;;;;;5031674;28;20033;-80
2021/12/14 04:35:33;;;;;;;9.40;5.63;;;7.00;93.80;;;;;;5061732;28;20089;-82
2021/12/14 04:38:05;;;;;;;7.03;4.18;;;7.00;93.80;;;;;;5022406;28;20557;-82
2021/12/14 04:54:03;;;;;;;7.45;4.88;;;7.00;93.80;;;;;;5081244;28;20044;-80
2021/12/14 04:56:38;;;;;;;10.48;6.18;;;6.90;93.70;;;;;;5058544;28;20124;-80
2021/12/14 04:59:12;;;;;;;9.13;5.57;;;6.90;93.80;;;;;;5075049;28;20094;-80
2021/12/14 05:01:41;;;;;;;8.40;4.65;;;6.90;93.80;;;;;;5037828;28;20036;-80
2021/12/14 05:04:09;;;;;;;11.00;5.63;;;6.90;93.80;;;;;;5042641;28;20048;-80
2021/12/14 05:06:54;;;;;;;9.13;4.97;;;6.90;93.80;;;;;;5037270;28;20035;-80
2021/12/14 05:09:29;;;;;;;8.00;4.53;;;6.90;93.80;;;;;;5035228;28;20028;-80
2021/12/14 05:12:11;;;;;;;7.55;4.70;;;6.90;93.80;;;;;;5047102;28;20056;-80
2021/12/14 05:14:37;;;;;;;13.05;6.80;;;6.90;93.80;;;;;;5029294;28;20076;-80
2021/12/14 05:17:07;;;;;;;10.50;6.25;;;6.90;93.80;;;;;;5042571;28;20040;-80
2021/12/14 05:19:34;;;;;;;12.38;6.32;;;6.90;93.80;;;;;;5060604;28;20063;-80
2021/12/14 05:22:03;;;;;;;7.75;4.88;;;6.90;93.80;;;;;;5018123;28;20477;-80
2021/12/14 05:24:29;;;;;;;6.35;4.68;;;6.90;93.80;;;;;;5053324;28;20033;-80
2021/12/14 05:27:00;;;;;;;9.13;5.68;;;6.80;93.80;;;;;;5022627;28;20032;-80
2021/12/14 05:29:26;;;;;;;12.63;5.70;;;6.80;93.80;;;;;;5015978;28;20517;-80
2021/12/14 05:31:52;;;;;;;11.13;5.78;;;6.80;93.80;;;;;;5041843;28;20032;-80
2021/12/14 05:34:17;;;;;;;9.63;5.22;;;6.80;93.80;;;;;;5027543;28;20039;-80
2021/12/14 05:36:44;;;;;;;10.30;5.47;;;6.80;93.80;;;;;;5046898;28;20035;-80
2021/12/14 05:44:41;;;;;;;7.55;4.35;;;6.80;93.80;;;;;;5041207;28;20032;-80
2021/12/14 05:47:10;;;;;;;7.13;3.95;;;6.80;93.80;;;;;;5035285;28;20036;-80
2021/12/14 05:49:36;;;;;;;8.05;4.45;;;6.80;93.80;;;;;;5053393;28;20411;-81
2021/12/14 05:52:07;;;;;;;9.27;5.35;;;6.80;93.80;;;;;;5054226;28;20044;-80
2021/12/14 05:54:33;;;;;;;12.52;6.68;;;6.80;93.80;;;;;;5005697;28;20095;-80
2021/12/14 05:57:00;;;;;;;16.27;8.43;;;6.80;93.80;;;;;;5066172;28;20576;-80
2021/12/14 05:59:27;;;;;;;15.73;8.00;;;6.80;93.80;;;;;;5020856;28;20024;-80
2021/12/14 06:01:53;;;;;;;13.20;7.05;;;6.80;93.80;;;;;;5075352;28;20123;-80
2021/12/14 06:04:18;;;;;;;11.90;7.00;;;6.80;93.80;;;;;;5047642;28;20170;-80
2021/12/14 06:06:49;;;;;;;11.13;5.88;;;6.80;93.80;;;;;;5046633;28;20652;-80
2021/12/14 06:09:21;;;;;;;14.15;6.20;;;6.80;93.80;;;;;;5007430;28;20112;-80
2021/12/14 06:11:48;;;;;;;12.73;6.43;;;6.80;93.80;;;;;;5053630;28;20036;-80
2021/12/14 06:14:17;;;;;;;9.27;5.78;;;6.80;93.80;;;;;;5024243;28;20037;-80
2021/12/14 06:16:42;;;;;;;9.73;5.05;;;6.70;93.80;;;;;;5037735;28;20081;-80
2021/12/14 06:19:22;;;;;;;7.85;5.00;;;6.80;93.80;;;;;;5020763;28;20037;-80
2021/12/14 06:22:00;;;;;;;8.65;5.00;;;6.80;93.80;;;;;;5052625;28;20025;-80
2021/12/14 06:24:26;;;;;;;9.48;5.35;;;6.80;93.80;;;;;;5025425;28;20059;-80
2021/12/14 06:26:53;;;;;;;11.25;5.32;;;6.80;93.80;;;;;;5030807;28;20557;-80
2021/12/14 06:29:40;;;;;;;8.25;5.10;;;6.80;93.90;;;;;;5011896;28;20036;-80
2021/12/14 06:32:10;;;;;;;11.20;5.60;;;6.80;93.90;;;;;;5001431;28;20111;-80
2021/12/14 06:34:38;;;;;;;9.23;4.95;;;6.70;93.80;;;;;;5039329;28;20080;-80
2021/12/14 06:37:17;;;;;;;7.88;4.47;;;6.70;93.80;;;;;;5010011;28;20037;-80
2021/12/14 06:40:16;;;;;;;9.15;5.63;;;6.70;93.80;;;;;;5034130;28;20038;-80
2021/12/14 06:42:45;;;;;;;13.48;6.32;;;6.70;93.80;;;;;;5020301;28;20055;-80
2021/12/14 06:45:16;;;;;;;14.43;7.80;;;6.70;93.80;;;;;;5047521;28;20118;-80
2021/12/14 06:47:42;;;;;;;;;;;6.70;93.80;;;;;;5027811;28;20042;-80
2021/12/14 06:50:10;;;;;;;12.27;6.68;;;6.70;93.80;;;;;;5033416;28;19992;-80
2021/12/14 06:52:36;;;;;;;11.82;6.20;;;6.70;93.80;;;;;;5015764;28;20040;-80
2021/12/14 06:55:02;;;;;;;10.90;6.50;;;6.70;93.80;;;;;;4996841;28;20029;-81
2021/12/14 06:57:28;;;;;;;11.32;6.40;;;6.70;93.90;;;;;;5020222;28;20478;-80
2021/12/14 06:59:55;;;;;;;9.43;5.47;;;6.70;93.90;;;;;;5027065;28;20037;-80
2021/12/14 07:02:21;;;;;;;10.00;5.40;;;6.70;93.90;;;;;;5001401;28;20053;-80
2021/12/14 07:04:49;;;;;;;12.32;6.22;;;6.70;93.90;;;;;;5011983;28;20026;-80
2021/12/14 07:07:17;;;;;;;11.98;6.28;;;6.70;93.90;;;;;;5017002;28;20083;-80
2021/12/14 07:09:45;;;;;;;15.23;7.75;;;6.70;93.90;;;;;;4991213;28;20403;-80
2021/12/14 07:12:12;;;;;;;13.85;8.13;;;6.70;93.90;;;;;;5017979;28;20030;-80
2021/12/14 07:14:41;;;;;;;15.02;8.07;;;6.70;93.90;;;;;;5018805;28;20145;-80
2021/12/14 07:17:11;;;;;;;17.00;8.30;;;6.70;93.90;;;;;;5017718;28;20034;-81
2021/12/14 07:19:45;;;;;;;17.63;8.10;;;6.70;93.90;;;;;;5022108;28;20064;-80
2021/12/14 07:22:37;;;;;;;11.40;6.82;;;6.70;93.90;;;;;;5054999;28;20128;-79
2021/12/14 07:25:12;;;;;;;14.02;7.15;;;6.70;93.90;;;;;;5012863;28;20117;-80
2021/12/14 07:27:45;;;;;;;14.32;6.53;;;6.70;93.90;;;;;;5017397;28;20526;-80
2021/12/14 07:30:26;;;;;;;10.18;6.13;;;6.70;93.90;;;;;;5006679;28;20032;-79
2021/12/14 07:32:54;;;;;;;11.00;6.40;;;6.70;93.90;;;;;;5019834;28;20033;-80
2021/12/14 07:35:27;;;;;;;11.05;5.88;;;6.70;93.90;;;;;;5030120;28;20101;-80
2021/12/14 07:37:57;;;;;;;12.68;7.38;;;6.70;93.90;;;;;;5035251;28;20028;-79
2021/12/14 07:40:24;;;;;;;13.30;7.82;;;6.70;93.90;;;;;;5025971;28;20036;-80
2021/12/14 07:43:06;;;;;;;13.57;8.00;;;6.70;93.90;;;;;;5055467;28;20025;-80
2021/12/14 07:45:32;;;;;;;12.48;7.75;;;6.70;94.00;;;;;;5073158;28;20037;-80
2021/12/14 07:47:57;;;;;;;10.90;7.22;;;6.70;94.00;;;;;;5033621;28;20099;-80
2021/12/14 07:50:37;;;;;;;9.18;5.82;;;6.70;93.90;;;;;;5029148;28;20047;-80
2021/12/14 07:53:02;;;;;;;7.80;4.78;;;6.70;94.00;;;;;;5045127;28;20047;-80
2021/12/14 07:55:28;;;;;;;9.50;6.45;;;6.70;93.90;;;;;;5041430;28;20040;-80
2021/12/14 07:57:54;;;;;;;10.68;6.32;;;6.70;93.90;;;;;;5023444;28;20434;-80
2021/12/14 08:00:25;;;;;;;10.90;6.82;;;6.70;93.90;;;;;;5030382;28;20509;-80
2021/12/14 08:02:55;;;;;;;13.68;8.30;;;6.70;93.90;;;;;;5050793;28;20040;-79
2021/12/14 08:05:27;;;;;;;14.90;8.68;;;6.80;94.00;;;;;;5044144;28;20256;-79
2021/12/14 08:08:17;;;;;;;11.77;7.85;;;6.70;94.00;;;;;;5043612;28;20148;-79
2021/12/14 08:10:49;;;;;;;11.65;6.80;;;6.80;94.00;;;;;;5041576;28;20443;-80
2021/12/14 08:13:20;;;;;;;14.43;7.90;;;6.70;93.90;;;;;;5063482;28;20036;-80
2021/12/14 08:15:57;;;;;;;12.30;6.90;;;6.80;94.00;;;;;;5044859;28;20047;-79
2021/12/14 08:18:28;;;;;;;11.00;6.10;;;6.80;94.00;;;;;;5060404;28;20091;-79
2021/12/14 08:20:57;;;;;;;9.52;6.10;;;6.80;94.00;;;;;;5029827;28;20037;-79
2021/12/14 08:23:32;;;;;;;10.00;6.43;;;6.80;94.00;;;;;;5049138;28;20299;-79
2021/12/14 08:26:20;;;;;;;10.93;5.97;;;6.80;93.90;;;;;;5040449;28;20032;-79
2021/12/14 08:28:55;;;;;;;12.07;5.82;;;6.80;94.30;;;;;;5049681;28;20031;-80
2021/12/14 08:31:26;;;;;;;10.70;6.40;;;6.80;94.00;;;;;;5046170;28;20045;-80
2021/12/14 08:34:03;;;;;;;10.52;6.13;;;6.80;94.00;;;;;;5047633;28;20036;-80
2021/12/14 08:36:39;;;;;;;10.40;6.15;;;6.80;94.00;;;;;;5049782;28;20550;-79
2021/12/14 08:39:13;;;;;;;10.20;6.13;;;6.90;94.00;;;;;;5057334;28;20035;-80
2021/12/14 08:41:47;;;;;;;8.80;6.18;;;6.80;94.00;;;;;;5027429;28;20087;-80
2021/12/14 08:44:20;;;;;;;9.68;6.03;;;6.90;94.00;;;;;;5039338;28;20672;-80
2021/12/14 08:46:47;;;;;;;10.88;6.45;;;6.90;94.00;;;;;;5041150;28;20089;-80
2021/12/14 08:49:15;;;;;;;11.05;6.68;;;6.90;94.00;;;;;;5083111;28;20047;-80
2021/12/14 08:51:44;;;;;;;9.60;6.05;;;6.90;94.10;;;;;;5044927;28;20105;-80
2021/12/14 08:54:16;;;;;;;9.68;5.57;;;6.90;94.10;;;;;;5055203;28;20036;-80
2021/12/14 08:56:49;;;;;;;11.50;6.80;;;6.90;94.00;;;;;;5044785;28;20371;-80
2021/12/14 08:59:15;;;;;;;12.38;6.93;;;7.00;94.00;;;;;;5044636;28;22270;-80
2021/12/14 09:01:42;;;;;;;11.13;7.22;;;7.00;94.00;;;;;;5023344;28;20635;-80
2021/12/14 09:04:15;;;;;;;10.40;6.47;;;7.00;94.00;;;;;;5038570;28;20123;-80
2021/12/14 09:06:42;;;;;;;16.42;9.48;;;7.00;94.10;;;;;;5008197;28;20190;-80
2021/12/14 09:09:10;;;;;;;18.10;9.57;;;7.00;94.00;;;;;;5043983;28;20071;-80
2021/12/14 09:11:37;;;;;;;18.63;9.70;;;7.00;94.00;;;;;;5041101;28;20040;-80
2021/12/14 09:14:09;;;;;;;16.73;9.50;;;7.00;94.00;;;;;;5039329;28;20050;-80
2021/12/14 09:16:35;;;;;;;11.07;6.68;;;7.10;94.10;;;;;;5045470;28;20032;-80
2021/12/14 09:19:12;;;;;;;13.40;7.50;;;7.10;94.10;;;;;;5052277;28;20114;-80
2021/12/14 09:21:40;;;;;;;12.27;7.28;;;7.10;94.10;;;;;;5061842;28;20028;-80
2021/12/14 09:24:08;;;;;;;11.02;7.07;;;7.10;94.10;;;;;;5048503;28;20032;-80
2021/12/14 09:26:37;;;;;;;13.70;7.28;;;7.10;94.00;;;;;;5044915;28;20119;-79
2021/12/14 09:29:07;;;;;;;11.85;6.82;;;7.20;94.00;;;;;;5072004;28;20086;-80
2021/12/14 09:31:36;;;;;;;14.63;7.47;;;7.20;94.00;;;;;;5039853;28;20599;-79
2021/12/14 09:34:02;;;;;;;8.73;6.13;;;7.20;94.00;;;;;;5038098;28;20047;-79
2021/12/14 09:36:29;;;;;;;11.48;6.82;;;7.20;94.00;;;;;;5033633;28;20044;-79
2021/12/14 09:38:57;;;;;;;12.93;6.95;;;7.20;94.00;;;;;;5065826;28;20135;-79
2021/12/14 09:41:26;;;;;;;10.52;7.18;;;7.20;94.00;;;;;;5059251;28;20521;-79
2021/12/14 09:43:52;;;;;;;10.52;6.65;;;7.30;94.00;;;;;;5050568;28;20032;-79
2021/12/14 09:46:18;;;;;;;12.68;7.50;;;7.30;94.10;;;;;;5064788;28;20492;-79
2021/12/14 09:48:49;;;;;;;14.60;7.97;;;7.30;94.00;;;;;;5051495;28;20028;-79
2021/12/14 09:51:20;;;;;;;15.70;8.23;;;7.30;94.10;;;;;;5049440;28;20059;-79
2021/12/14 09:53:47;;;;;;;12.57;8.07;;;7.30;94.00;;;;;;5043555;28;20442;-79
2021/12/14 09:56:14;;;;;;;13.82;6.40;;;7.40;94.00;;;;;;5068602;28;20078;-79
2021/12/14 09:58:43;;;;;;;12.63;6.82;;;7.40;94.40;;;;;;5028987;28;20032;-79
2021/12/14 10:01:15;;;;;;;12.13;7.00;;;7.40;94.00;;;;;;5046965;28;20378;-79
2021/12/14 10:03:41;;;;;;;15.07;7.00;;;7.40;94.00;;;;;;5053716;28;20450;-79
2021/12/14 10:06:09;;;;;;;12.88;7.10;;;7.40;94.00;;;;;;5060584;28;20498;-79
2021/12/14 10:08:38;;;;;;;14.38;7.18;;;7.40;94.00;;;;;;5034586;28;20113;-80
2021/12/14 10:11:11;;;;;;;12.35;7.28;;;7.40;94.00;;;;;;5060687;28;20560;-79
2021/12/14 10:13:40;;;;;;;11.90;6.75;;;7.40;94.00;;;;;;5020347;28;20021;-79
2021/12/14 10:16:06;;;;;;;14.02;7.60;;;7.40;94.00;;;;;;5048191;28;20034;-79
2021/12/14 10:18:40;;;;;;;13.80;7.78;;;7.50;94.00;;;;;;5025456;28;20041;-79
2021/12/14 10:21:07;;;;;;;15.10;8.00;;;7.50;94.00;;;;;;5013021;28;20116;-79
2021/12/14 10:23:34;;;;;;;13.40;7.50;;;7.50;94.00;;;;;;5074711;28;20033;-79
2021/12/14 10:26:00;;;;;;;13.93;7.68;;;7.50;93.90;;;;;;5080514;28;20077;-79
2021/12/14 10:28:26;;;;;;;17.55;9.80;;;7.50;93.90;;;;;;5042783;28;20425;-79
2021/12/14 10:30:58;;;;;;;18.42;9.32;;;7.50;93.90;;;;;;5054961;28;20099;-79
2021/12/14 10:33:25;;;;;;;16.42;8.55;;;7.50;93.90;;;;;;5052819;28;20128;-79
2021/12/14 10:35:55;;;;;;;15.20;7.78;;;7.50;93.90;;;;;;5059523;28;20624;-79
2021/12/14 10:38:30;;;;;;;15.13;8.18;;;7.60;94.00;;;;;;5063525;28;20059;-79
2021/12/14 10:43:47;;;;;;;;;;;7.60;93.90;;;;;;5054079;28;20035;-79
2021/12/14 10:46:20;;;;;;;15.80;8.15;;;7.60;93.90;;;;;;5074612;28;19916;-79
2021/12/14 10:48:46;;;;;;;13.68;8.18;;;7.60;93.80;;;;;;5038065;28;20028;-79
2021/12/14 10:51:14;;;;;;;16.00;8.43;;;7.60;93.90;;;;;;5045528;28;20032;-79
2021/12/14 10:53:42;;;;;;;16.58;9.38;;;7.60;93.90;;;;;;5030780;28;20506;-79
2021/12/14 10:56:13;;;;;;;17.75;8.88;;;7.60;93.90;;;;;;5080070;28;20036;-79
2021/12/14 10:58:39;;;;;;;15.48;8.23;;;7.60;93.90;;;;;;5053310;28;20115;-79
2021/12/14 11:01:25;;;;;;;13.00;7.95;;;7.70;93.90;;;;;;5018458;28;20491;-79
2021/12/14 11:03:55;;;;;;;17.35;9.20;;;7.70;93.90;;;;;;5040821;28;20123;-79
2021/12/14 11:06:27;;;;;;;15.73;8.02;;;7.70;93.90;;;;;;5034552;28;20083;-79
2021/12/14 11:11:49;;;;;;;13.30;7.70;;;7.70;93.90;;;;;;5032880;28;20030;-79
2021/12/14 11:14:18;;;;;;;17.23;9.38;;;7.70;93.80;;;;;;5079077;28;20478;-79
2021/12/14 11:19:39;;;;;;;19.70;9.75;;;7.70;93.90;;;;;;5047936;28;20449;-79
2021/12/14 11:22:18;;;;;;;18.77;9.27;;;7.70;93.90;;;;;;5022999;28;20119;-79
2021/12/14 11:24:50;;;;;;;18.63;10.52;;;7.70;93.90;;;;;;5078187;28;20024;-79
2021/12/14 11:27:17;;;;;;;;;;;7.70;93.90;;;;;;5043078;28;20040;-79
2021/12/14 11:29:43;;;;;;;18.58;10.30;;;7.70;93.80;;;;;;5049606;28;19913;-79
2021/12/14 11:32:14;;;;;;;17.90;9.85;;;7.70;93.80;;;;;;5043871;28;20048;-79
2021/12/14 11:34:40;;;;;;;19.92;11.43;;;7.80;93.80;;;;;;5022932;28;20033;-79
2021/12/14 11:37:09;;;;;;;26.75;11.65;;;7.80;93.80;;;;;;5044634;28;20055;-79
2021/12/14 11:39:43;;;;;;;20.35;10.88;;;7.80;93.90;;;;;;5032098;28;20036;-79
2021/12/14 11:42:11;;;;;;;20.98;11.40;;;7.80;93.90;;;;;;5036451;28;20063;-79
2021/12/14 11:45:04;;;;;;;25.90;12.95;;;7.80;93.80;;;;;;5052644;28;20037;-79
2021/12/14 11:50:23;;;;;;;22.27;12.57;;;7.80;93.80;;;;;;5048662;28;20168;-79
2021/12/14 11:53:05;;;;;;;23.60;12.80;;;7.80;93.80;;;;;;5066422;28;20037;-80
2021/12/14 11:55:41;;;;;;;20.88;11.77;;;7.80;93.80;;;;;;5017444;28;20033;-79
2021/12/14 11:58:25;;;;;;;19.55;11.30;;;7.90;93.90;;;;;;5050265;28;20047;-79
2021/12/14 12:01:09;;;;;;;21.35;11.50;;;7.90;93.90;;;;;;5047025;28;20039;-79
2021/12/14 12:03:47;;;;;;;19.30;10.85;;;7.90;93.90;;;;;;5060910;28;20115;-79
2021/12/14 12:09:30;;;;;;;20.88;12.45;;;8.00;93.90;;;;;;5033707;28;20036;-79
2021/12/14 12:12:05;;;;;;;21.23;10.88;;;8.00;94.20;;;;;;5058044;28;20025;-79
2021/12/14 12:14:36;;;;;;;18.08;10.82;;;8.00;93.80;;;;;;5005440;28;20055;-79
2021/12/14 12:17:37;;;;;;;20.63;10.90;;;8.00;93.80;;;;;;5056911;28;20043;-79
2021/12/14 12:20:27;;;;;;;17.13;10.68;;;8.10;93.80;;;;;;5058749;28;20044;-80
2021/12/14 12:22:58;;;;;;;17.05;10.48;;;8.10;93.80;;;;;;5053282;28;20025;-79
2021/12/14 12:25:28;;;;;;;14.65;9.20;;;8.10;93.80;;;;;;5055260;28;20056;-80
2021/12/14 12:27:56;;;;;;;15.80;9.75;;;8.10;93.80;;;;;;5042684;28;20572;-80
2021/12/14 12:30:35;;;;;;;18.95;10.52;;;8.10;93.80;;;;;;5059205;28;20429;-79
2021/12/14 12:33:10;;;;;;;18.35;9.70;;;8.10;93.80;;;;;;5036532;28;20497;-80
2021/12/14 12:36:00;;;;;;;15.48;9.15;;;8.10;93.80;;;;;;5071954;28;20036;-80
2021/12/14 12:38:29;;;;;;;18.45;10.38;;;8.10;93.80;;;;;;5049665;28;20072;-79
2021/12/14 12:41:17;;;;;;;16.13;9.40;;;8.20;93.80;;;;;;5087891;28;20036;-80
2021/12/14 12:43:55;;;;;;;13.88;8.98;;;8.20;93.80;;;;;;5033071;28;20371;-80
2021/12/14 12:46:24;;;;;;;14.45;8.57;;;8.20;93.80;;;;;;5024586;28;20040;-79
2021/12/14 12:48:54;;;;;;;15.05;8.80;;;8.20;93.80;;;;;;5053183;28;20041;-80
2021/12/14 12:51:59;;;;;;;18.95;8.73;;;8.20;93.80;;;;;;5079620;28;20039;-79
2021/12/14 12:54:36;;;;;;;14.77;8.50;;;8.20;93.70;;;;;;5035112;28;20036;-80
2021/12/14 12:57:16;;;;;;;12.85;8.20;;;8.20;93.70;;;;;;5076491;28;20060;-80
2021/12/14 13:00:09;;;;;;;15.00;8.93;;;8.20;93.60;;;;;;5018725;28;20049;-79
2021/12/14 13:02:52;;;;;;;14.02;8.90;;;8.20;93.60;;;;;;5034074;28;20574;-79
2021/12/14 13:05:29;;;;;;;14.20;8.60;;;8.20;93.60;;;;;;5056289;28;20024;-80
2021/12/14 13:08:16;;;;;;;11.77;7.78;;;8.20;93.60;;;;;;5029072;28;20062;-80
2021/12/14 13:11:05;;;;;;;14.13;8.43;;;8.20;93.60;;;;;;5016841;28;20043;-79
2021/12/14 13:13:39;;;;;;;13.32;8.32;;;8.20;93.60;;;;;;5054393;28;20035;-79
2021/12/14 13:16:13;;;;;;;14.55;8.32;;;8.20;93.60;;;;;;5047702;28;20409;-79
2021/12/14 13:18:50;;;;;;;13.43;8.02;;;8.20;93.60;;;;;;5045025;28;20032;-80
2021/12/14 13:21:21;;;;;;;13.73;7.88;;;8.20;93.60;;;;;;5039807;28;20039;-79
2021/12/14 13:23:55;;;;;;;18.92;9.48;;;8.20;93.50;;;;;;5050157;28;20029;-80
2021/12/14 13:26:24;;;;;;;15.40;8.63;;;8.20;93.50;;;;;;5042981;28;20027;-80
2021/12/14 13:28:51;;;;;;;14.13;8.52;;;8.20;93.50;;;;;;5046111;28;20494;-80
2021/12/14 13:31:56;;;;;;;16.48;9.93;;;8.20;93.60;;;;;;5015070;28;20124;-80
2021/12/14 13:34:28;;;;;;;13.05;8.05;;;8.20;93.50;;;;;;5045726;28;20040;-80
2021/12/14 13:36:54;;;;;;;16.15;9.68;;;8.20;93.50;;;;;;5044390;28;20028;-79
2021/12/14 13:39:20;;;;;;;15.77;9.30;;;8.10;93.80;;;;;;5052809;28;20390;-80
2021/12/14 13:42:03;;;;;;;15.95;9.57;;;8.10;93.50;;;;;;5020884;28;20089;-80
2021/12/14 13:44:33;;;;;;;14.82;8.70;;;8.10;93.50;;;;;;5056718;28;20476;-80
2021/12/14 13:46:59;;;;;;;17.65;10.35;;;8.10;93.50;;;;;;5041413;28;20613;-80
2021/12/14 13:49:26;;;;;;;18.33;10.35;;;8.10;93.50;;;;;;5044099;28;20097;-79
2021/12/14 13:51:51;;;;;;;14.30;9.35;;;8.20;93.50;;;;;;5026187;28;20529;-80
2021/12/14 13:54:17;;;;;;;13.93;8.63;;;8.10;93.50;;;;;;5030572;28;20044;-80